Time;durP1;ratioP1;P1;durP2;ratioP2;P2;SDS_P1;SDS_P2;PMS_P1;PMS_P2;Temp;Humidity;BMP_temperature;BMP_pressure;BME280_temperature;BME280_humidity;BME280_pressure;Samples;Min_cycle;Max_cycle;Signal;HPM_P1;HPM_P2
2023/01/23 00:00:03;;;;;;;47.40;14.60;;;;;;;;;;8498450;27;20049;-84
2023/01/23 00:04:08;;;;;;;125.65;17.45;;;;;;;;;;8498227;27;20049;-87
2023/01/23 00:08:11;;;;;;;60.85;17.40;;;;;;;;;;8498371;27;20051;-83
2023/01/23 00:12:14;;;;;;;76.72;16.73;;;;;;;;;;8497391;27;20063;-83
2023/01/23 00:16:19;;;;;;;57.10;18.88;;;;;;;;;;8497941;27;20118;-86
2023/01/23 00:20:24;;;;;;;69.80;19.55;;;;;;;;;;8498372;27;20047;-82
2023/01/23 00:24:27;;;;;;;53.42;15.20;;;;;;;;;;8497730;27;20099;-82
2023/01/23 00:28:30;;;;;;;66.60;19.02;;;;;;;;;;8497880;27;20486;-85
2023/01/23 00:32:32;;;;;;;53.72;15.15;;;;;;;;;;8498131;27;20043;-83
2023/01/23 00:36:39;;;;;;;61.65;18.20;;;;;;;;;;8497535;27;20122;-83
2023/01/23 00:40:42;;;;;;;49.20;15.90;;;;;;;;;;8497481;27;20436;-87
2023/01/23 00:44:44;;;;;;;55.83;13.25;;;;;;;;;;8497197;27;20459;-83
2023/01/23 00:48:47;;;;;;;63.55;20.25;;;;;;;;;;8497217;27;20047;-84
2023/01/23 00:52:52;;;;;;;62.03;23.60;;;;;;;;;;8497253;27;20118;-84
2023/01/23 00:56:56;;;;;;;44.22;12.93;;;;;;;;;;8497413;27;20450;-83
2023/01/23 01:00:59;;;;;;;51.17;14.43;;;;;;;;;;8496968;27;20050;-86
2023/01/23 01:05:01;;;;;;;51.00;14.93;;;;;;;;;;8496844;28;20043;-87
2023/01/23 01:09:05;;;;;;;41.80;12.45;;;;;;;;;;8496117;28;20047;-84
2023/01/23 01:13:10;;;;;;;33.58;11.82;;;;;;;;;;8496709;27;20189;-84
2023/01/23 01:17:13;;;;;;;38.47;13.10;;;;;;;;;;8496715;28;20047;-83
2023/01/23 01:21:16;;;;;;;42.40;13.50;;;;;;;;;;8496747;27;20119;-84
2023/01/23 01:25:21;;;;;;;53.45;15.13;;;;;;;;;;8503279;27;20053;-83
2023/01/23 01:29:24;;;;;;;36.45;11.98;;;;;;;;;;8503478;27;20470;-82
2023/01/23 01:33:27;;;;;;;40.75;12.57;;;;;;;;;;8503335;27;20043;-88
2023/01/23 01:37:33;;;;;;;73.20;19.50;;;;;;;;;;8503182;27;20053;-83
2023/01/23 01:41:37;;;;;;;56.03;18.25;;;;;;;;;;8502947;27;20107;-82
2023/01/23 01:46:06;;;;;;;47.65;13.80;;;;;;;;;;8502862;27;20043;-83
2023/01/23 01:50:12;;;;;;;41.72;14.30;;;;;;;;;;8502790;27;20463;-87
2023/01/23 01:54:23;;;;;;;64.45;20.45;;;;;;;;;;8502686;27;20047;-83
2023/01/23 01:58:28;;;;;;;48.10;15.00;;;;;;;;;;8502703;27;20083;-83
2023/01/23 02:02:35;;;;;;;66.32;21.10;;;;;;;;;;8495774;27;20039;-82
2023/01/23 02:06:38;;;;;;;47.25;14.55;;;;;;;;;;8481175;27;20379;-89
2023/01/23 02:10:42;;;;;;;85.07;14.55;;;;;;;;;;8485710;27;20047;-84
2023/01/23 02:14:47;;;;;;;54.25;12.98;;;;;;;;;;8484204;27;20044;-84
2023/01/23 02:18:54;;;;;;;61.40;16.63;;;;;;;;;;8486166;27;20534;-83
2023/01/23 02:23:05;;;;;;;49.28;13.73;;;;;;;;;;8479337;27;20064;-87
2023/01/23 02:27:09;;;;;;;94.07;14.45;;;;;;;;;;8481378;27;20158;-82
2023/01/23 02:31:13;;;;;;;61.85;12.95;;;;;;;;;;8481275;27;20074;-89
2023/01/23 02:35:26;;;;;;;55.10;13.15;;;;;;;;;;8482605;27;20042;-86
2023/01/23 02:39:29;;;;;;;137.88;15.85;;;;;;;;;;8483645;27;20118;-83
2023/01/23 02:43:38;;;;;;;40.42;13.60;;;;;;;;;;8483833;27;20050;-88
2023/01/23 02:47:41;;;;;;;37.60;13.98;;;;;;;;;;8480997;27;20487;-88
2023/01/23 02:51:44;;;;;;;41.63;13.73;;;;;;;;;;8474110;27;20050;-84
2023/01/23 02:55:47;;;;;;;31.77;11.85;;;;;;;;;;8482965;27;20063;-86
2023/01/23 03:04:17;;;;;;;94.72;13.88;;;;;;;;;;8483936;27;20043;-88
2023/01/23 03:08:20;;;;;;;42.25;12.43;;;;;;;;;;8481486;27;20040;-88
2023/01/23 03:12:22;;;;;;;33.88;12.18;;;;;;;;;;8482274;27;20052;-89
2023/01/23 03:16:28;;;;;;;79.00;12.90;;;;;;;;;;8472134;27;20062;-82
2023/01/23 03:20:39;;;;;;;38.65;12.05;;;;;;;;;;8465997;28;20048;-83
2023/01/23 03:24:42;;;;;;;41.13;11.30;;;;;;;;;;8465946;28;20138;-82
2023/01/23 03:33:09;;;;;;;39.20;11.35;;;;;;;;;;8482732;27;20086;-83
2023/01/23 03:37:13;;;;;;;33.30;10.52;;;;;;;;;;8493366;27;20073;-87
2023/01/23 03:41:24;;;;;;;28.85;9.55;;;;;;;;;;8499792;27;20387;-82
2023/01/23 03:45:27;;;;;;;94.55;12.52;;;;;;;;;;8498221;27;20043;-88
2023/01/23 03:49:32;;;;;;;130.68;12.07;;;;;;;;;;8498984;27;20514;-83
2023/01/23 03:53:38;;;;;;;55.00;12.68;;;;;;;;;;8498840;27;20095;-83
2023/01/23 03:57:41;;;;;;;96.88;12.57;;;;;;;;;;8498779;27;20091;-82
2023/01/23 04:01:44;;;;;;;82.38;12.48;;;;;;;;;;8498496;27;20043;-81
2023/01/23 04:05:48;;;;;;;76.85;11.60;;;;;;;;;;8498328;27;20103;-81
2023/01/23 04:09:51;;;;;;;160.75;13.93;;;;;;;;;;8498436;27;20047;-84
2023/01/23 04:13:55;;;;;;;64.43;11.55;;;;;;;;;;8497994;27;20055;-87
2023/01/23 04:17:57;;;;;;;35.70;10.32;;;;;;;;;;8498496;27;20612;-89
2023/01/23 04:22:02;;;;;;;40.25;10.93;;;;;;;;;;8498051;27;20064;-84
2023/01/23 04:26:04;;;;;;;113.72;13.30;;;;;;;;;;8496424;27;20082;-84
2023/01/23 04:30:09;;;;;;;74.90;12.38;;;;;;;;;;8498372;27;20543;-84
2023/01/23 04:34:12;;;;;;;66.00;12.10;;;;;;;;;;8497783;27;20099;-82
2023/01/23 04:38:16;;;;;;;60.00;10.63;;;;;;;;;;8498065;27;20478;-82
2023/01/23 04:42:19;;;;;;;60.10;16.30;;;;;;;;;;8497515;27;20039;-83
2023/01/23 04:46:22;;;;;;;45.20;17.35;;;;;;;;;;8497423;27;20116;-85
2023/01/23 04:50:25;;;;;;;95.22;14.27;;;;;;;;;;8497234;27;20095;-81
2023/01/23 04:54:30;;;;;;;86.55;13.25;;;;;;;;;;8497262;27;20406;-86
2023/01/23 04:58:33;;;;;;;65.07;12.75;;;;;;;;;;8496986;27;20062;-82
2023/01/23 05:02:36;;;;;;;39.83;10.55;;;;;;;;;;8495783;27;20049;-90
2023/01/23 05:06:39;;;;;;;48.15;11.30;;;;;;;;;;8496971;28;20122;-83
2023/01/23 05:10:44;;;;;;;43.13;10.00;;;;;;;;;;8496623;28;20085;-87
2023/01/23 05:14:47;;;;;;;34.22;8.75;;;;;;;;;;8496882;28;20047;-82
2023/01/23 05:18:50;;;;;;;41.55;10.43;;;;;;;;;;8496886;28;20085;-83
2023/01/23 05:22:53;;;;;;;25.38;9.30;;;;;;;;;;8496634;28;20128;-82
2023/01/23 05:26:57;;;;;;;26.92;10.30;;;;;;;;;;8496753;28;20111;-89
2023/01/23 05:31:00;;;;;;;34.88;10.18;;;;;;;;;;8496537;27;20177;-83
2023/01/23 05:35:03;;;;;;;33.20;10.05;;;;;;;;;;8496439;28;20072;-84
2023/01/23 05:39:06;;;;;;;27.85;9.75;;;;;;;;;;8496853;28;20039;-82
2023/01/23 05:43:13;;;;;;;23.70;9.27;;;;;;;;;;8496416;28;20047;-82
2023/01/23 05:47:16;;;;;;;28.02;9.85;;;;;;;;;;8496330;28;20047;-82
2023/01/23 05:51:21;;;;;;;27.25;10.35;;;;;;;;;;8496391;28;20063;-85
2023/01/23 05:55:24;;;;;;;25.50;10.15;;;;;;;;;;8496004;28;20077;-86
2023/01/23 05:59:28;;;;;;;22.15;9.68;;;;;;;;;;8496270;28;20051;-81
2023/01/23 06:03:31;;;;;;;27.77;11.10;;;;;;;;;;8496006;28;20412;-84
2023/01/23 06:07:34;;;;;;;29.20;12.20;;;;;;;;;;8495408;27;20142;-85
2023/01/23 06:11:38;;;;;;;33.08;12.38;;;;;;;;;;8470257;27;20063;-81
2023/01/23 06:15:42;;;;;;;26.30;10.02;;;;;;;;;;8468648;28;20537;-80
2023/01/23 06:19:45;;;;;;;23.90;10.18;;;;;;;;;;8496638;27;20110;-86
2023/01/23 06:23:48;;;;;;;26.88;11.23;;;;;;;;;;8501939;27;20051;-83
2023/01/23 06:27:51;;;;;;;57.97;21.55;;;;;;;;;;8501754;27;20130;-83
2023/01/23 06:31:55;;;;;;;35.92;15.32;;;;;;;;;;8501242;27;20126;-83
2023/01/23 06:35:59;;;;;;;27.77;10.50;;;;;;;;;;8485673;27;20055;-83
2023/01/23 06:40:02;;;;;;;23.13;9.90;;;;;;;;;;8485615;27;20039;-90
2023/01/23 06:44:06;;;;;;;27.15;9.63;;;;;;;;;;8483311;27;20455;-83
2023/01/23 06:48:11;;;;;;;23.48;9.02;;;;;;;;;;8488010;27;20517;-84
2023/01/23 06:52:14;;;;;;;21.08;10.05;;;;;;;;;;8475221;27;20039;-88
2023/01/23 06:56:17;;;;;;;21.75;10.57;;;;;;;;;;8480294;27;20045;-83
2023/01/23 07:00:21;;;;;;;20.67;8.82;;;;;;;;;;8489301;27;20126;-90
2023/01/23 07:04:25;;;;;;;19.75;9.02;;;;;;;;;;8491378;27;20044;-88
2023/01/23 07:08:29;;;;;;;29.75;15.20;;;;;;;;;;8488775;27;20143;-87
2023/01/23 07:12:32;;;;;;;22.90;9.10;;;;;;;;;;8485264;27;20126;-84
2023/01/23 07:16:35;;;;;;;19.17;8.18;;;;;;;;;;8474740;27;20475;-83
2023/01/23 07:20:39;;;;;;;21.10;8.93;;;;;;;;;;8469714;27;20071;-83
2023/01/23 07:24:42;;;;;;;21.95;9.43;;;;;;;;;;8500081;27;20046;-82
2023/01/23 07:28:46;;;;;;;23.55;9.20;;;;;;;;;;8499971;27;20042;-82
2023/01/23 07:32:49;;;;;;;16.42;7.35;;;;;;;;;;8495702;27;20469;-83
2023/01/23 07:36:54;;;;;;;18.42;9.07;;;;;;;;;;8499845;27;20095;-85
2023/01/23 07:40:59;;;;;;;19.50;8.60;;;;;;;;;;8498059;27;20043;-84
2023/01/23 07:45:02;;;;;;;22.00;9.82;;;;;;;;;;8499931;27;20609;-90
2023/01/23 07:49:04;;;;;;;25.08;9.98;;;;;;;;;;8499555;27;20039;-86
2023/01/23 07:53:09;;;;;;;18.52;7.88;;;;;;;;;;8468977;27;20051;-88
2023/01/23 07:57:12;;;;;;;21.20;7.65;;;;;;;;;;8471137;27;20118;-82
2023/01/23 08:01:15;;;;;;;16.65;8.35;;;;;;;;;;8498355;27;20106;-83
2023/01/23 08:05:18;;;;;;;17.08;7.95;;;;;;;;;;8497209;27;20078;-83
2023/01/23 08:09:22;;;;;;;20.55;9.40;;;;;;;;;;8484447;27;20578;-89
2023/01/23 08:13:25;;;;;;;23.33;10.45;;;;;;;;;;8469358;27;20127;-83
2023/01/23 08:17:29;;;;;;;31.23;13.68;;;;;;;;;;8475071;27;20050;-83
2023/01/23 08:21:32;;;;;;;43.17;18.75;;;;;;;;;;8468508;27;20498;-88
2023/01/23 08:25:38;;;;;;;28.65;13.63;;;;;;;;;;8481631;27;20043;-83
2023/01/23 08:29:42;;;;;;;21.58;8.90;;;;;;;;;;8475969;27;20080;-83
2023/01/23 08:33:45;;;;;;;18.50;8.68;;;;;;;;;;8478658;27;20134;-84
2023/01/23 08:37:48;;;;;;;22.48;10.50;;;;;;;;;;8478605;27;20483;-86
2023/01/23 08:41:52;;;;;;;18.85;8.68;;;;;;;;;;8479301;27;20085;-85
2023/01/23 08:45:57;;;;;;;18.63;8.70;;;;;;;;;;8479197;27;20260;-84
2023/01/23 08:50:00;;;;;;;25.08;11.25;;;;;;;;;;8482006;27;20063;-83
2023/01/23 08:54:03;;;;;;;22.52;10.23;;;;;;;;;;8482934;27;20384;-90
2023/01/23 08:58:09;;;;;;;24.70;10.82;;;;;;;;;;8481179;27;20458;-86
2023/01/23 09:02:12;;;;;;;25.02;10.20;;;;;;;;;;8483863;27;20128;-84
2023/01/23 09:06:16;;;;;;;24.50;12.15;;;;;;;;;;8474697;28;20058;-84
2023/01/23 09:10:19;;;;;;;23.45;10.35;;;;;;;;;;8475283;28;20060;-89
2023/01/23 09:14:24;;;;;;;33.13;15.52;;;;;;;;;;8480180;28;20479;-84
2023/01/23 09:18:27;;;;;;;25.55;10.23;;;;;;;;;;8485585;28;20031;-86
2023/01/23 09:22:30;;;;;;;28.60;9.90;;;;;;;;;;8479662;28;20038;-84
2023/01/23 09:26:33;;;;;;;18.73;8.48;;;;;;;;;;8487383;28;20436;-85
2023/01/23 09:30:38;;;;;;;22.45;9.38;;;;;;;;;;8462901;28;20067;-84
2023/01/23 09:34:41;;;;;;;20.23;9.32;;;;;;;;;;8467856;28;20070;-84
2023/01/23 09:38:44;;;;;;;19.55;8.20;;;;;;;;;;8475504;28;20071;-86
2023/01/23 09:42:47;;;;;;;19.75;8.60;;;;;;;;;;8478776;27;20479;-90
2023/01/23 09:46:55;;;;;;;16.20;7.93;;;;;;;;;;8492249;27;20159;-84
2023/01/23 09:51:03;;;;;;;19.58;10.15;;;;;;;;;;8488999;27;20035;-84
2023/01/23 09:55:15;;;;;;;16.17;8.45;;;;;;;;;;8487711;27;20123;-86
2023/01/23 09:59:28;;;;;;;21.25;9.65;;;;;;;;;;8488399;27;20496;-89
2023/01/23 10:03:32;;;;;;;29.35;14.77;;;;;;;;;;8485090;27;20040;-84
2023/01/23 10:07:48;;;;;;;19.23;9.65;;;;;;;;;;8483657;27;20118;-84
2023/01/23 10:12:02;;;;;;;20.88;9.45;;;;;;;;;;8491055;27;20047;-90
2023/01/23 10:16:16;;;;;;;48.70;22.80;;;;;;;;;;8478481;27;20167;-84
2023/01/23 10:20:39;;;;;;;39.63;21.88;;;;;;;;;;8486692;27;20079;-86
2023/01/23 10:24:49;;;;;;;21.10;9.50;;;;;;;;;;8493334;27;20047;-84
2023/01/23 10:28:56;;;;;;;20.80;9.23;;;;;;;;;;8500588;27;20043;-85
2023/01/23 10:33:01;;;;;;;18.77;9.52;;;;;;;;;;8501473;27;20070;-84
2023/01/23 10:37:13;;;;;;;25.45;10.40;;;;;;;;;;8477671;27;20482;-89
2023/01/23 10:41:18;;;;;;;26.17;11.40;;;;;;;;;;8490074;27;20502;-86
2023/01/23 10:45:23;;;;;;;29.35;12.18;;;;;;;;;;8485742;27;20615;-86
2023/01/23 10:49:31;;;;;;;24.10;10.23;;;;;;;;;;8477046;27;20047;-84
2023/01/23 10:53:36;;;;;;;83.15;20.30;;;;;;;;;;8477818;27;20084;-86
2023/01/23 10:57:47;;;;;;;49.75;16.92;;;;;;;;;;8466612;28;20114;-88
2023/01/23 11:02:02;;;;;;;33.13;15.20;;;;;;;;;;8492288;27;20039;-85
2023/01/23 11:06:07;;;;;;;36.60;15.80;;;;;;;;;;8498257;27;20078;-85
2023/01/23 11:10:21;;;;;;;24.05;10.18;;;;;;;;;;8498444;27;20611;-85
2023/01/23 11:14:23;;;;;;;28.20;11.27;;;;;;;;;;8498051;27;20047;-86
2023/01/23 11:18:35;;;;;;;30.10;11.80;;;;;;;;;;8499229;27;20123;-85
2023/01/23 11:22:40;;;;;;;19.63;7.77;;;;;;;;;;8499930;27;20118;-85
2023/01/23 11:26:45;;;;;;;22.65;9.90;;;;;;;;;;8499652;27;20043;-86
2023/01/23 11:30:51;;;;;;;31.88;14.02;;;;;;;;;;8490574;27;20112;-86
2023/01/23 11:35:07;;;;;;;31.83;11.88;;;;;;;;;;8487968;27;20055;-89
2023/01/23 11:39:21;;;;;;;30.88;13.43;;;;;;;;;;8478644;27;20063;-85
2023/01/23 11:43:25;;;;;;;22.27;9.30;;;;;;;;;;8486419;27;20486;-86
2023/01/23 11:47:41;;;;;;;24.13;11.02;;;;;;;;;;8490123;27;20045;-85
2023/01/23 11:51:54;;;;;;;40.78;17.70;;;;;;;;;;8485040;27;20045;-85
2023/01/23 11:56:32;;;;;;;25.15;11.25;;;;;;;;;;8490101;27;20539;-88
2023/01/23 12:00:42;;;;;;;31.23;11.57;;;;;;;;;;8488516;27;20057;-86
2023/01/23 12:05:01;;;;;;;21.60;8.52;;;;;;;;;;8498952;27;20126;-85
2023/01/23 12:09:13;;;;;;;28.17;11.57;;;;;;;;;;8490951;27;20048;-90
2023/01/23 12:13:47;;;;;;;45.17;16.73;;;;;;;;;;8477412;27;20579;-87
2023/01/23 12:18:02;;;;;;;19.98;9.07;;;;;;;;;;8487759;27;20052;-89
2023/01/23 12:22:10;;;;;;;27.15;11.48;;;;;;;;;;8477736;27;20047;-88
2023/01/23 12:26:15;;;;;;;18.92;9.38;;;;;;;;;;8487483;27;20041;-84
2023/01/23 12:30:38;;;;;;;23.63;9.32;;;;;;;;;;8467848;27;20063;-91
2023/01/23 12:35:00;;;;;;;32.03;12.68;;;;;;;;;;8482726;27;20045;-84
2023/01/23 12:39:16;;;;;;;32.20;11.40;;;;;;;;;;8482414;27;20127;-89
2023/01/23 12:43:29;;;;;;;108.47;35.90;;;;;;;;;;8466997;27;20131;-87
2023/01/23 12:47:37;;;;;;;32.38;11.85;;;;;;;;;;8472971;27;20095;-86
2023/01/23 12:51:46;;;;;;;23.27;9.75;;;;;;;;;;8467222;27;20392;-87
2023/01/23 12:56:01;;;;;;;23.13;8.77;;;;;;;;;;8476717;27;20043;-88
2023/01/23 13:00:10;;;;;;;33.40;11.02;;;;;;;;;;8470862;27;20750;-86
2023/01/23 13:04:29;;;;;;;42.47;17.83;;;;;;;;;;8479781;27;20402;-87
2023/01/23 13:08:40;;;;;;;24.13;9.43;;;;;;;;;;8475798;28;20051;-85
2023/01/23 13:12:44;;;;;;;22.60;10.02;;;;;;;;;;8474321;28;20138;-89
2023/01/23 13:16:48;;;;;;;27.02;11.25;;;;;;;;;;8484711;27;20047;-90
2023/01/23 13:25:20;;;;;;;35.47;12.52;;;;;;;;;;8480702;27;20047;-85
2023/01/23 13:29:50;;;;;;;26.02;10.55;;;;;;;;;;8487383;27;20080;-89
2023/01/23 13:33:54;;;;;;;56.25;19.42;;;;;;;;;;8471096;27;20118;-86
2023/01/23 13:37:59;;;;;;;126.13;40.17;;;;;;;;;;8484429;27;20439;-85
2023/01/23 13:42:44;;;;;;;25.95;10.13;;;;;;;;;;8482300;27;20050;-84
2023/01/23 13:47:05;;;;;;;32.58;15.23;;;;;;;;;;8489696;27;20047;-86
2023/01/23 13:51:20;;;;;;;45.42;21.17;;;;;;;;;;8482789;27;20054;-83
2023/01/23 13:59:58;;;;;;;24.40;10.07;;;;;;;;;;8475244;27;20054;-86
2023/01/23 14:08:45;;;;;;;20.25;9.23;;;;;;;;;;8478518;27;20047;-90
2023/01/23 14:12:49;;;;;;;26.40;11.77;;;;;;;;;;8481661;27;20059;-88
2023/01/23 14:16:52;;;;;;;24.38;10.55;;;;;;;;;;8480905;27;20054;-84
2023/01/23 14:34:16;;;;;;;68.20;27.63;;;;;;;;;;8456080;27;2051637;-85
2023/01/23 14:38:27;;;;;;;41.53;14.57;;;;;;;;;;8491272;28;20406;-90
2023/01/23 14:42:32;;;;;;;36.97;12.65;;;;;;;;;;8492499;28;20130;-85
2023/01/23 14:46:38;;;;;;;28.25;11.55;;;;;;;;;;8492757;27;20067;-91
2023/01/23 14:50:43;;;;;;;39.65;14.13;;;;;;;;;;8492632;28;20046;-85
2023/01/23 14:54:46;;;;;;;34.13;13.40;;;;;;;;;;8491790;28;20047;-91
2023/01/23 14:58:49;;;;;;;67.00;23.20;;;;;;;;;;8474181;28;20109;-85
2023/01/23 15:02:53;;;;;;;36.42;12.38;;;;;;;;;;8492002;28;20462;-91
2023/01/23 15:06:59;;;;;;;66.97;23.88;;;;;;;;;;8498390;27;20035;-89
2023/01/23 15:11:05;;;;;;;75.07;25.08;;;;;;;;;;8494070;27;20051;-84
2023/01/23 15:15:18;;;;;;;42.22;16.38;;;;;;;;;;8461578;28;20035;-84
2023/01/23 15:19:23;;;;;;;55.35;19.50;;;;;;;;;;8457368;28;20048;-84
2023/01/23 15:23:31;;;;;;;40.20;13.77;;;;;;;;;;8468351;28;20043;-84
2023/01/23 15:27:34;;;;;;;97.32;41.53;;;;;;;;;;8461837;28;20050;-92
2023/01/23 15:31:44;;;;;;;36.97;15.10;;;;;;;;;;8476897;27;20146;-89
2023/01/23 15:35:47;;;;;;;126.72;60.38;;;;;;;;;;8476058;27;20047;-91
2023/01/23 15:39:54;;;;;;;96.90;31.17;;;;;;;;;;8489825;27;20469;-83
2023/01/23 15:43:58;;;;;;;35.67;11.68;;;;;;;;;;8485219;27;20557;-89
2023/01/23 15:48:01;;;;;;;40.42;15.73;;;;;;;;;;8485704;27;20491;-87
2023/01/23 15:52:20;;;;;;;69.38;19.85;;;;;;;;;;8468487;27;20438;-87
2023/01/23 15:56:29;;;;;;;30.40;13.38;;;;;;;;;;8476757;27;20550;-84
2023/01/23 16:00:32;;;;;;;38.90;14.35;;;;;;;;;;8468264;27;20415;-88
2023/01/23 16:04:35;;;;;;;80.97;28.83;;;;;;;;;;8466259;28;20047;-91
2023/01/23 16:08:38;;;;;;;48.78;17.23;;;;;;;;;;8493123;27;20139;-93
2023/01/23 16:12:45;;;;;;;36.65;12.63;;;;;;;;;;8488849;27;20400;-83
2023/01/23 16:16:48;;;;;;;37.65;13.65;;;;;;;;;;8495047;27;20054;-84
2023/01/23 16:20:51;;;;;;;40.00;15.05;;;;;;;;;;8488905;27;20039;-86
2023/01/23 16:24:55;;;;;;;70.05;26.25;;;;;;;;;;8476051;27;20126;-84
2023/01/23 16:29:00;;;;;;;66.97;22.23;;;;;;;;;;8469080;27;20051;-88
2023/01/23 16:33:03;;;;;;;59.33;22.20;;;;;;;;;;8481373;27;20054;-86
2023/01/23 16:37:13;;;;;;;57.42;24.00;;;;;;;;;;8473314;27;20127;-91
2023/01/23 16:41:17;;;;;;;49.65;15.82;;;;;;;;;;8467477;27;20048;-85
2023/01/23 16:45:26;;;;;;;35.45;12.48;;;;;;;;;;8471071;27;20039;-83
2023/01/23 16:49:30;;;;;;;38.72;13.07;;;;;;;;;;8477515;27;20070;-87
2023/01/23 16:53:37;;;;;;;156.02;39.53;;;;;;;;;;8471734;27;20058;-83
2023/01/23 16:57:41;;;;;;;460.98;100.68;;;;;;;;;;8485813;27;20740;-85
2023/01/23 17:01:52;;;;;;;272.60;62.15;;;;;;;;;;8478637;27;20686;-92
2023/01/23 17:06:01;;;;;;;24.55;11.57;;;;;;;;;;8483898;27;20039;-84
2023/01/23 17:10:06;;;;;;;390.65;88.70;;;;;;;;;;8479294;27;20051;-84
2023/01/23 17:14:17;;;;;;;471.80;100.32;;;;;;;;;;8478271;27;20074;-88
2023/01/23 17:18:25;;;;;;;142.70;32.55;;;;;;;;;;8473196;27;20126;-82
2023/01/23 17:22:30;;;;;;;105.68;24.75;;;;;;;;;;8475627;27;20044;-90
2023/01/23 17:26:34;;;;;;;35.72;13.68;;;;;;;;;;8468882;27;20108;-83
2023/01/23 17:30:45;;;;;;;404.70;88.63;;;;;;;;;;8466817;27;20088;-85
2023/01/23 17:35:00;;;;;;;88.40;26.13;;;;;;;;;;8477165;27;20035;-87
2023/01/23 17:39:07;;;;;;;341.70;91.50;;;;;;;;;;8473566;27;20440;-85
2023/01/23 17:43:12;;;;;;;161.82;42.53;;;;;;;;;;8479189;27;20475;-86
2023/01/23 17:47:18;;;;;;;36.58;13.48;;;;;;;;;;8467864;27;20044;-84
2023/01/23 17:51:27;;;;;;;172.25;52.80;;;;;;;;;;8477344;27;20407;-91
2023/01/23 17:55:31;;;;;;;281.75;69.70;;;;;;;;;;8445561;27;20118;-86
2023/01/23 17:59:39;;;;;;;166.32;47.80;;;;;;;;;;8462992;27;20047;-87
2023/01/23 18:03:44;;;;;;;40.22;15.00;;;;;;;;;;8483114;27;20048;-88
2023/01/23 18:07:52;;;;;;;37.60;15.10;;;;;;;;;;8480481;27;20043;-83
2023/01/23 18:11:57;;;;;;;35.90;14.30;;;;;;;;;;8484448;27;20117;-87
2023/01/23 18:16:12;;;;;;;47.80;15.85;;;;;;;;;;8469320;27;20043;-86
2023/01/23 18:20:23;;;;;;;94.85;22.17;;;;;;;;;;8485206;28;20047;-85
2023/01/23 18:24:37;;;;;;;107.50;31.77;;;;;;;;;;8448049;28;20047;-84
2023/01/23 18:28:48;;;;;;;176.90;55.22;;;;;;;;;;8469946;28;20051;-84
2023/01/23 18:33:08;;;;;;;194.60;63.05;;;;;;;;;;8463534;28;20059;-86
2023/01/23 18:37:19;;;;;;;67.82;19.13;;;;;;;;;;8476289;28;20043;-86
2023/01/23 18:41:31;;;;;;;29.83;13.68;;;;;;;;;;8479262;27;20146;-88
2023/01/23 18:45:36;;;;;;;25.65;9.95;;;;;;;;;;8469006;28;20051;-88
2023/01/23 18:49:41;;;;;;;35.97;12.85;;;;;;;;;;8481150;27;20046;-87
2023/01/23 18:53:55;;;;;;;40.60;14.15;;;;;;;;;;8450860;28;20066;-87
2023/01/23 18:58:15;;;;;;;139.55;29.70;;;;;;;;;;8470515;28;20047;-90
2023/01/23 19:02:33;;;;;;;73.93;23.57;;;;;;;;;;8470528;28;20108;-86
2023/01/23 19:06:40;;;;;;;66.18;20.13;;;;;;;;;;8478117;27;20100;-85
2023/01/23 19:10:49;;;;;;;42.08;15.65;;;;;;;;;;8468560;27;20048;-93
2023/01/23 19:15:12;;;;;;;77.40;23.13;;;;;;;;;;8481375;27;20051;-87
2023/01/23 19:19:24;;;;;;;73.30;25.70;;;;;;;;;;8494325;27;20047;-89
2023/01/23 19:23:35;;;;;;;;;;;;;;;;;;8486485;27;20043;-88
2023/01/23 19:27:43;;;;;;;250.75;51.55;;;;;;;;;;8499637;27;19978;-84
2023/01/23 19:31:50;;;;;;;100.47;31.10;;;;;;;;;;8488394;27;20786;-89
2023/01/23 19:35:56;;;;;;;38.88;13.25;;;;;;;;;;8483152;27;20048;-86
2023/01/23 19:40:01;;;;;;;173.80;48.00;;;;;;;;;;8478310;27;20474;-84
2023/01/23 19:44:07;;;;;;;121.10;34.50;;;;;;;;;;8487778;27;20054;-86
2023/01/23 19:48:15;;;;;;;60.33;16.42;;;;;;;;;;8498168;27;20046;-84
2023/01/23 19:52:20;;;;;;;47.10;15.02;;;;;;;;;;8456657;28;20048;-85
2023/01/23 19:56:24;;;;;;;105.50;23.35;;;;;;;;;;8467051;28;20747;-84
2023/01/23 20:00:32;;;;;;;55.05;15.48;;;;;;;;;;8482908;27;20039;-86
2023/01/23 20:04:39;;;;;;;99.05;25.00;;;;;;;;;;8502291;27;20486;-91
2023/01/23 20:08:43;;;;;;;77.00;20.35;;;;;;;;;;8501249;27;20039;-86
2023/01/23 20:12:50;;;;;;;130.95;32.38;;;;;;;;;;8504130;27;20042;-87
2023/01/23 20:16:56;;;;;;;161.23;40.00;;;;;;;;;;8508570;27;20110;-87
2023/01/23 20:21:02;;;;;;;51.90;14.98;;;;;;;;;;8466942;27;20134;-88
2023/01/23 20:25:09;;;;;;;119.25;27.58;;;;;;;;;;8501500;27;20043;-85
2023/01/23 20:29:13;;;;;;;57.17;15.27;;;;;;;;;;8496595;27;20047;-86
2023/01/23 20:33:21;;;;;;;69.57;15.73;;;;;;;;;;8475420;27;20039;-85
2023/01/23 20:37:32;;;;;;;151.52;37.38;;;;;;;;;;8496776;27;20051;-86
2023/01/23 20:41:37;;;;;;;48.47;15.27;;;;;;;;;;8484880;27;20043;-91
2023/01/23 20:45:48;;;;;;;60.85;14.45;;;;;;;;;;8488827;27;20091;-90
2023/01/23 20:49:52;;;;;;;80.05;25.20;;;;;;;;;;8470855;27;20040;-85
2023/01/23 20:54:00;;;;;;;58.67;17.73;;;;;;;;;;8496290;27;20571;-85
2023/01/23 21:02:29;;;;;;;52.17;13.68;;;;;;;;;;8497347;27;20054;-89
2023/01/23 21:06:36;;;;;;;55.72;16.60;;;;;;;;;;8499079;27;20043;-85
2023/01/23 21:10:42;;;;;;;97.45;19.80;;;;;;;;;;8499777;27;20050;-84
2023/01/23 21:14:46;;;;;;;155.27;28.42;;;;;;;;;;8500013;27;20039;-85
2023/01/23 21:18:49;;;;;;;101.50;21.30;;;;;;;;;;8499687;27;20410;-85
2023/01/23 21:22:52;;;;;;;78.10;17.73;;;;;;;;;;8499593;27;20078;-86
2023/01/23 21:26:58;;;;;;;58.85;16.38;;;;;;;;;;8499592;27;20526;-86
2023/01/23 21:31:08;;;;;;;76.72;16.92;;;;;;;;;;8498619;27;20147;-86
2023/01/23 21:35:12;;;;;;;143.25;35.22;;;;;;;;;;8499352;27;20062;-84
2023/01/23 21:39:15;;;;;;;114.75;22.77;;;;;;;;;;8480839;27;20051;-86
2023/01/23 21:43:20;;;;;;;59.05;16.27;;;;;;;;;;8498779;27;20039;-84
2023/01/23 21:47:23;;;;;;;70.10;17.58;;;;;;;;;;8498932;27;20092;-85
2023/01/23 21:51:26;;;;;;;65.75;14.65;;;;;;;;;;8498611;27;20134;-84
2023/01/23 21:55:29;;;;;;;58.33;13.77;;;;;;;;;;8498818;27;20485;-84
2023/01/23 21:59:33;;;;;;;56.22;15.52;;;;;;;;;;8480630;27;20050;-85
2023/01/23 22:03:36;;;;;;;42.05;14.50;;;;;;;;;;8498257;27;20051;-85
2023/01/23 22:07:39;;;;;;;73.68;16.67;;;;;;;;;;8498362;27;20047;-87
2023/01/23 22:11:42;;;;;;;63.92;16.73;;;;;;;;;;8498333;27;20122;-85
2023/01/23 22:15:46;;;;;;;92.95;18.00;;;;;;;;;;8498345;27;20397;-85
2023/01/23 22:19:49;;;;;;;98.63;31.25;;;;;;;;;;8498083;27;20074;-85
2023/01/23 22:23:52;;;;;;;125.32;30.25;;;;;;;;;;8497975;28;20076;-84
2023/01/23 22:27:55;;;;;;;93.75;22.50;;;;;;;;;;8498113;28;20043;-85
2023/01/23 22:32:00;;;;;;;81.88;19.23;;;;;;;;;;8476697;28;20055;-89
2023/01/23 22:36:04;;;;;;;85.40;22.08;;;;;;;;;;8483232;28;20072;-86
2023/01/23 22:40:09;;;;;;;101.75;31.45;;;;;;;;;;8497818;28;20121;-87
2023/01/23 22:44:13;;;;;;;64.40;18.10;;;;;;;;;;8488521;27;20039;-86
2023/01/23 22:48:18;;;;;;;62.47;18.65;;;;;;;;;;8470568;28;20612;-85
2023/01/23 22:52:21;;;;;;;81.22;21.95;;;;;;;;;;8470485;28;20039;-85
2023/01/23 22:56:25;;;;;;;72.07;19.88;;;;;;;;;;8470356;28;20077;-86
2023/01/23 23:00:28;;;;;;;70.28;20.73;;;;;;;;;;8470086;28;20208;-87
2023/01/23 23:04:33;;;;;;;55.55;17.40;;;;;;;;;;8470012;28;20410;-85
2023/01/23 23:08:36;;;;;;;49.22;16.15;;;;;;;;;;8469913;28;20665;-84
2023/01/23 23:12:38;;;;;;;52.80;17.30;;;;;;;;;;8470048;28;20051;-85
2023/01/23 23:16:41;;;;;;;69.55;19.80;;;;;;;;;;8469751;28;20589;-88
2023/01/23 23:20:46;;;;;;;56.88;16.90;;;;;;;;;;8469488;28;20069;-85
2023/01/23 23:24:49;;;;;;;38.97;13.20;;;;;;;;;;8469479;28;20043;-87
2023/01/23 23:28:52;;;;;;;45.75;16.33;;;;;;;;;;8469343;28;20042;-86
2023/01/23 23:32:55;;;;;;;54.03;16.65;;;;;;;;;;8468805;28;20079;-86
2023/01/23 23:36:59;;;;;;;54.70;18.73;;;;;;;;;;8469114;28;20130;-86
2023/01/23 23:41:03;;;;;;;65.68;18.77;;;;;;;;;;8469067;28;20131;-85
2023/01/23 23:45:08;;;;;;;71.30;19.08;;;;;;;;;;8468895;28;20447;-91
2023/01/23 23:49:10;;;;;;;57.88;17.25;;;;;;;;;;8468616;28;20123;-85
2023/01/23 23:53:15;;;;;;;73.63;26.02;;;;;;;;;;8467976;28;20044;-86
2023/01/23 23:57:18;;;;;;;41.28;16.05;;;;;;;;;;8468475;28;20078;-89
